createdAt,value
2022-11-12T00:02:25.738Z,5544.00
2022-11-12T00:07:32.776Z,5616.00
2022-11-12T00:12:39.999Z,5652.00
2022-11-12T00:17:47.413Z,5832.00
2022-11-12T00:22:54.481Z,5436.00
2022-11-12T00:28:01.643Z,5868.00
2022-11-12T00:33:08.959Z,5580.00
2022-11-12T00:38:16.016Z,5508.00
2022-11-12T00:43:23.493Z,5436.00
2022-11-12T00:48:30.875Z,-936.00
2022-11-12T00:53:37.992Z,-900.00
2022-11-12T00:58:45.224Z,-936.00
2022-11-12T01:03:52.642Z,-900.00
2022-11-12T01:08:59.683Z,-936.00
2022-11-12T01:14:06.881Z,-900.00
2022-11-12T01:19:14.179Z,-900.00
2022-11-12T01:24:21.208Z,-900.00
2022-11-12T01:29:28.441Z,-900.00
2022-11-12T01:34:35.810Z,-900.00
2022-11-12T01:39:42.887Z,-900.00
2022-11-12T01:44:50.117Z,-900.00
2022-11-12T01:49:59.253Z,-900.00
2022-11-12T01:55:06.341Z,-900.00
2022-11-12T02:00:13.654Z,-900.00
2022-11-12T02:05:21.008Z,-900.00
2022-11-12T02:10:28.209Z,-900.00
2022-11-12T02:15:38.331Z,-900.00
2022-11-12T02:20:45.708Z,-900.00
2022-11-12T02:25:52.763Z,-900.00
2022-11-12T02:31:00.016Z,-900.00
2022-11-12T02:36:07.285Z,-900.00
2022-11-12T02:41:15.416Z,-864.00
2022-11-12T02:46:24.215Z,-900.00
2022-11-12T02:51:31.569Z,-900.00
2022-11-12T02:56:38.672Z,-900.00
2022-11-12T03:01:45.877Z,-900.00
2022-11-12T03:06:53.231Z,-900.00
2022-11-12T03:12:00.501Z,-900.00
2022-11-12T03:17:07.789Z,-900.00
2022-11-12T03:22:15.131Z,-900.00
2022-11-12T03:27:22.228Z,-864.00
2022-11-12T03:32:29.423Z,-900.00
2022-11-12T03:37:36.811Z,-900.00
2022-11-12T03:42:43.937Z,-900.00
2022-11-12T03:47:51.253Z,-900.00
2022-11-12T03:52:58.672Z,-900.00
2022-11-12T03:58:05.747Z,-900.00
2022-11-12T04:03:13.793Z,-900.00
2022-11-12T04:08:21.207Z,-900.00
2022-11-12T04:13:28.295Z,-900.00
2022-11-12T04:18:35.619Z,-864.00
2022-11-12T04:23:42.952Z,-900.00
2022-11-12T04:28:50.150Z,-900.00
2022-11-12T04:33:57.362Z,-864.00
2022-11-12T04:39:04.688Z,-900.00
2022-11-12T04:44:11.800Z,-864.00
2022-11-12T04:49:19.029Z,-900.00
2022-11-12T04:54:29.422Z,-900.00
2022-11-12T04:59:36.524Z,-900.00
2022-11-12T05:04:43.741Z,-900.00
2022-11-12T05:09:51.128Z,-900.00
2022-11-12T05:14:58.298Z,-900.00
2022-11-12T05:20:05.561Z,-864.00
2022-11-12T05:25:12.976Z,-864.00
2022-11-12T05:30:20.081Z,-900.00
2022-11-12T05:35:27.359Z,-900.00
2022-11-12T05:40:34.777Z,-864.00
2022-11-12T05:45:43.926Z,-864.00
2022-11-12T05:51:11.796Z,-900.00
2022-11-12T05:55:58.448Z,-900.00
2022-11-12T06:01:05.504Z,-900.00
2022-11-12T06:06:12.720Z,-864.00
2022-11-12T06:11:20.025Z,-864.00
2022-11-12T06:16:27.123Z,-900.00
2022-11-12T06:21:34.381Z,-864.00
2022-11-12T06:26:41.752Z,-864.00
2022-11-12T06:31:48.937Z,-900.00
2022-11-12T06:36:56.170Z,-864.00
2022-11-12T06:42:03.516Z,-864.00
2022-11-12T06:47:10.637Z,-864.00
2022-11-12T06:52:17.859Z,-864.00
2022-11-12T06:57:25.180Z,-864.00
2022-11-12T07:02:32.310Z,-828.00
2022-11-12T07:07:39.538Z,-828.00
2022-11-12T07:12:53.157Z,-828.00
2022-11-12T07:17:55.062Z,-792.00
2022-11-12T07:23:02.326Z,-792.00
2022-11-12T07:28:10.269Z,-756.00
2022-11-12T07:33:17.449Z,-756.00
2022-11-12T07:38:25.006Z,-720.00
2022-11-12T07:43:32.048Z,-756.00
2022-11-12T07:48:39.174Z,-756.00
2022-11-12T07:53:46.421Z,-756.00
2022-11-12T07:58:53.786Z,-756.00
2022-11-12T08:04:00.872Z,-720.00
2022-11-12T08:09:08.077Z,-720.00
2022-11-12T08:14:15.464Z,-756.00
2022-11-12T08:19:22.471Z,-684.00
2022-11-12T08:24:29.727Z,14004.00
2022-11-12T08:29:38.839Z,15012.00
2022-11-12T08:34:45.941Z,15192.00
2022-11-12T08:39:53.125Z,15228.00
2022-11-12T08:45:02.559Z,15516.00
2022-11-12T08:50:11.574Z,15516.00
2022-11-12T08:55:18.803Z,14688.00
2022-11-12T09:00:26.215Z,16308.00
2022-11-12T09:05:33.330Z,16596.00
2022-11-12T09:10:40.573Z,16992.00
2022-11-12T09:15:47.943Z,17280.00
2022-11-12T09:20:55.046Z,16668.00
2022-11-12T09:26:02.296Z,16416.00
2022-11-12T09:31:09.614Z,17316.00
2022-11-12T09:36:16.728Z,16884.00
2022-11-12T09:41:23.967Z,15876.00
2022-11-12T09:46:31.307Z,15912.00
2022-11-12T09:51:38.417Z,15696.00
2022-11-12T09:56:45.635Z,15120.00
2022-11-12T10:01:53.046Z,15048.00
2022-11-12T10:07:00.112Z,15012.00
2022-11-12T10:12:09.308Z,15192.00
2022-11-12T10:17:18.500Z,15696.00
2022-11-12T10:22:25.684Z,14220.00
2022-11-12T10:27:32.905Z,14760.00
2022-11-12T10:32:40.259Z,15588.00
2022-11-12T10:37:47.365Z,16092.00
2022-11-12T10:42:54.645Z,15948.00
2022-11-12T10:48:01.989Z,15048.00
2022-11-12T10:53:12.965Z,14796.00
2022-11-12T10:58:20.139Z,14904.00
2022-11-12T11:03:27.486Z,15372.00
2022-11-12T11:08:36.575Z,15300.00
2022-11-12T11:13:41.830Z,13392.00
2022-11-12T11:18:52.231Z,15912.00
2022-11-12T11:23:59.383Z,17100.00
2022-11-12T11:29:06.599Z,16416.00
2022-11-12T11:34:13.875Z,15984.00
2022-11-12T11:39:20.986Z,15948.00
2022-11-12T11:44:28.220Z,16128.00
2022-11-12T11:49:41.445Z,16164.00
2022-11-12T11:54:49.934Z,16920.00
2022-11-12T11:59:57.179Z,17316.00
2022-11-12T12:05:05.019Z,18216.00
2022-11-12T12:10:12.095Z,17784.00
2022-11-12T12:15:19.785Z,17244.00
2022-11-12T12:20:28.915Z,15516.00
2022-11-12T12:25:36.052Z,15660.00
2022-11-12T12:30:43.286Z,14616.00
2022-11-12T12:35:50.612Z,15084.00
2022-11-12T12:40:57.770Z,14508.00
2022-11-12T12:46:05.016Z,14256.00
2022-11-12T12:51:12.442Z,13500.00
2022-11-12T12:56:19.509Z,13608.00
2022-11-12T13:01:26.726Z,14976.00
2022-11-12T13:06:34.116Z,14832.00
2022-11-12T13:11:42.032Z,14148.00
2022-11-12T13:16:49.266Z,12816.00
2022-11-12T13:21:56.783Z,13392.00
2022-11-12T13:27:03.868Z,13572.00
2022-11-12T13:32:11.044Z,13716.00
2022-11-12T13:37:18.383Z,13428.00
2022-11-12T13:42:25.424Z,12528.00
2022-11-12T13:47:32.686Z,11412.00
2022-11-12T13:52:40.000Z,11988.00
2022-11-12T13:57:47.066Z,10440.00
2022-11-12T14:02:54.254Z,11592.00
2022-11-12T14:08:01.617Z,10332.00
2022-11-12T14:13:08.752Z,8856.00
2022-11-12T14:18:16.837Z,8424.00
2022-11-12T14:23:25.331Z,8172.00
2022-11-12T14:28:31.303Z,7596.00
2022-11-12T14:33:38.595Z,7200.00
2022-11-12T14:38:45.954Z,6516.00
2022-11-12T14:44:11.013Z,6048.00
2022-11-12T14:49:01.838Z,5616.00
2022-11-12T14:54:13.211Z,5220.00
2022-11-12T14:59:20.406Z,4536.00
2022-11-12T15:04:27.571Z,3816.00
2022-11-12T15:09:35.060Z,3024.00
2022-11-12T15:14:42.160Z,10332.00
2022-11-12T15:19:52.919Z,10044.00
2022-11-12T15:25:02.226Z,11016.00
2022-11-12T15:30:09.339Z,10836.00
2022-11-12T15:35:16.615Z,10728.00
2022-11-12T15:40:24.053Z,10512.00
2022-11-12T15:45:31.239Z,10440.00
2022-11-12T15:50:38.588Z,10188.00
2022-11-12T15:55:45.976Z,10332.00
2022-11-12T16:00:53.494Z,10188.00
2022-11-12T16:06:05.679Z,10044.00
2022-11-12T16:11:08.099Z,10116.00
2022-11-12T16:16:15.881Z,10116.00
2022-11-12T16:21:24.871Z,9972.00
2022-11-12T16:26:32.302Z,10116.00
2022-11-12T16:31:40.238Z,9936.00
2022-11-12T16:36:47.402Z,9936.00
2022-11-12T16:41:54.710Z,10044.00
2022-11-12T16:47:08.343Z,10008.00
2022-11-12T16:52:15.580Z,9972.00
2022-11-12T16:57:22.935Z,10008.00
2022-11-12T17:02:30.144Z,9936.00
2022-11-12T17:07:37.410Z,10008.00
2022-11-12T17:12:44.763Z,9972.00
2022-11-12T17:17:51.965Z,9972.00
2022-11-12T17:22:59.433Z,9972.00
2022-11-12T17:28:07.178Z,9972.00
2022-11-12T17:33:14.497Z,10080.00
2022-11-12T17:38:21.775Z,9972.00
2022-11-12T17:43:29.524Z,9972.00
2022-11-12T17:48:36.307Z,10008.00
2022-11-12T17:53:44.505Z,10008.00
2022-11-12T17:58:52.102Z,9972.00
2022-11-12T18:03:59.536Z,9936.00
2022-11-12T18:09:08.173Z,9972.00
2022-11-12T18:14:15.570Z,9720.00
2022-11-12T18:19:22.733Z,9612.00
2022-11-12T18:24:30.195Z,9576.00
2022-11-12T18:29:37.923Z,9648.00
2022-11-12T18:34:45.392Z,9468.00
2022-11-12T18:39:53.346Z,9864.00
2022-11-12T18:45:00.872Z,9864.00
2022-11-12T18:50:09.046Z,9900.00
2022-11-12T18:55:15.341Z,9972.00
2022-11-12T19:00:22.718Z,10584.00
2022-11-12T19:05:30.185Z,10512.00
2022-11-12T19:10:37.594Z,10512.00
2022-11-12T19:15:44.972Z,10548.00
2022-11-12T19:20:52.135Z,10764.00
2022-11-12T19:25:59.621Z,10548.00
2022-11-12T19:31:07.289Z,10512.00
2022-11-12T19:36:14.551Z,10440.00
2022-11-12T19:41:21.802Z,10548.00
2022-11-12T19:46:29.268Z,10368.00
2022-11-12T19:51:36.379Z,10368.00
2022-11-12T19:56:43.687Z,10440.00
2022-11-12T20:01:51.346Z,10332.00
2022-11-12T20:06:58.948Z,10476.00
2022-11-12T20:12:06.219Z,10512.00
2022-11-12T20:17:13.530Z,10404.00
2022-11-12T20:22:20.923Z,10080.00
2022-11-12T20:27:28.267Z,10044.00
2022-11-12T20:32:35.812Z,10332.00
2022-11-12T20:37:47.558Z,10512.00
2022-11-12T20:42:54.892Z,10224.00
2022-11-12T20:48:02.592Z,10188.00
2022-11-12T20:53:09.904Z,10296.00
2022-11-12T20:58:17.437Z,10224.00
2022-11-12T21:03:24.825Z,10152.00
2022-11-12T21:08:32.216Z,10260.00
2022-11-12T21:13:39.658Z,9900.00
2022-11-12T21:18:47.075Z,9936.00
2022-11-12T21:23:56.753Z,9864.00
2022-11-12T21:29:02.791Z,9864.00
2022-11-12T21:34:10.108Z,10044.00
2022-11-12T21:39:17.201Z,10188.00
2022-11-12T21:44:24.395Z,10080.00
2022-11-12T21:49:32.841Z,10116.00
2022-11-12T21:54:39.996Z,10188.00
2022-11-12T21:59:47.164Z,9936.00
2022-11-12T22:04:54.530Z,9900.00
2022-11-12T22:10:01.659Z,9972.00
2022-11-12T22:15:08.880Z,9900.00
2022-11-12T22:20:16.991Z,9972.00
2022-11-12T22:25:24.035Z,9936.00
2022-11-12T22:30:31.225Z,10008.00
2022-11-12T22:35:38.601Z,9900.00
2022-11-12T22:40:45.707Z,10080.00
2022-11-12T22:45:52.913Z,9972.00
2022-11-12T22:51:00.348Z,9864.00
2022-11-12T22:56:07.323Z,9900.00
2022-11-12T23:01:14.596Z,9828.00
2022-11-12T23:06:21.886Z,9900.00
2022-11-12T23:11:29.507Z,9720.00
2022-11-12T23:16:37.994Z,10080.00
2022-11-12T23:21:45.320Z,9900.00
2022-11-12T23:26:52.404Z,9828.00
2022-11-12T23:32:00.225Z,10044.00
2022-11-12T23:37:07.622Z,10044.00
2022-11-12T23:42:14.704Z,10116.00
2022-11-12T23:47:21.942Z,9972.00
2022-11-12T23:52:29.322Z,10044.00
2022-11-12T23:57:36.367Z,10044.00
